createdAt,value
2023-03-16T00:00:05.092Z,96712.94
2023-03-16T00:02:31.545Z,96707.19
2023-03-16T00:04:58.004Z,96705.44
2023-03-16T00:07:24.474Z,96709.19
2023-03-16T00:09:50.947Z,96713.69
2023-03-16T00:12:17.431Z,96717.44
2023-03-16T00:14:43.923Z,96718.97
2023-03-16T00:17:10.387Z,96722.91
2023-03-16T00:19:36.849Z,96722.34
2023-03-16T00:22:03.292Z,96715.56
2023-03-16T00:24:29.732Z,96718.50
2023-03-16T00:26:56.207Z,96722.38
2023-03-16T00:29:22.678Z,96722.44
2023-03-16T00:31:49.205Z,96725.34
2023-03-16T00:34:15.732Z,96716.94
2023-03-16T00:36:42.225Z,96720.03
2023-03-16T00:39:08.683Z,96722.44
2023-03-16T00:41:35.120Z,96718.16
2023-03-16T00:44:01.597Z,96712.94
2023-03-16T00:46:28.060Z,96709.41
2023-03-16T00:48:54.525Z,96718.50
2023-03-16T00:51:21.006Z,96718.94
2023-03-16T00:53:47.474Z,96714.41
2023-03-16T00:56:13.943Z,96715.72
2023-03-16T00:58:40.430Z,96715.38
2023-03-16T01:01:06.941Z,96710.97
2023-03-16T05:06:37.999Z,96672.03
2023-03-16T05:09:04.453Z,96666.47
2023-03-16T05:11:30.891Z,96667.47
2023-03-16T05:13:57.350Z,96662.28
2023-03-16T05:16:23.863Z,96663.28
2023-03-16T05:18:50.347Z,96647.44
2023-03-16T05:21:16.821Z,96646.34
2023-03-16T05:23:43.291Z,96654.97
2023-03-16T05:26:09.728Z,96650.00
2023-03-16T05:28:36.155Z,96646.78
2023-03-16T05:31:02.725Z,96655.84
2023-03-16T05:33:29.244Z,96656.31
2023-03-16T05:35:55.716Z,96665.59
2023-03-16T05:38:22.180Z,96654.19
2023-03-16T05:40:48.670Z,96635.28
2023-03-16T05:43:15.120Z,96634.94
2023-03-16T05:45:41.555Z,96638.28
2023-03-16T05:48:07.995Z,96647.25
2023-03-16T05:50:34.466Z,96654.19
2023-03-16T05:53:00.925Z,96656.97
2023-03-16T05:55:27.413Z,96652.97
2023-03-16T05:57:53.863Z,96667.47
2023-03-16T06:00:20.316Z,96665.13
2023-03-16T06:02:46.828Z,96651.22
2023-03-16T06:05:13.326Z,96649.13
2023-03-16T06:07:39.849Z,96657.72
2023-03-16T06:10:06.309Z,96658.28
2023-03-16T06:12:32.767Z,96659.28
2023-03-16T06:14:59.219Z,96653.97
2023-03-16T06:17:25.663Z,96644.69
2023-03-16T06:19:52.142Z,96651.00
2023-03-16T06:22:18.671Z,96651.72
2023-03-16T06:24:45.119Z,96653.63
2023-03-16T06:27:11.566Z,96656.84
2023-03-16T06:29:38.026Z,96664.69
2023-03-16T06:32:04.465Z,96660.72
2023-03-16T06:34:30.916Z,96663.28
2023-03-16T06:36:57.372Z,96673.78
2023-03-16T06:39:23.807Z,96660.59
2023-03-16T06:41:50.263Z,96654.75
2023-03-16T06:44:16.754Z,96652.97
2023-03-16T06:46:43.239Z,96654.63
2023-03-16T06:49:09.710Z,96668.13
2023-03-16T06:51:36.147Z,96678.84
2023-03-16T06:54:02.568Z,96681.75
2023-03-16T06:56:29.007Z,96678.09
2023-03-16T06:58:55.471Z,96684.81
2023-03-16T07:01:21.954Z,96669.78
2023-03-16T07:03:48.470Z,96659.28
2023-03-16T07:06:14.932Z,96662.47
2023-03-16T07:08:41.379Z,96660.28
2023-03-16T07:11:07.853Z,96666.38
2023-03-16T07:13:34.303Z,96670.34
2023-03-16T07:16:00.730Z,96661.47
2023-03-16T07:18:27.183Z,96665.25
2023-03-16T07:20:53.631Z,96656.06
2023-03-16T07:23:20.093Z,96656.53
2023-03-16T07:25:46.573Z,96655.84
2023-03-16T07:28:13.037Z,96647.66
2023-03-16T07:30:39.516Z,96652.53
2023-03-16T07:33:06.042Z,96663.16
2023-03-16T07:35:32.533Z,96684.75
2023-03-16T07:37:58.962Z,96686.06
2023-03-16T07:40:25.404Z,96682.41
2023-03-16T07:42:51.855Z,96671.47
2023-03-16T07:45:18.287Z,96670.47
2023-03-16T07:47:44.715Z,96666.03
2023-03-16T07:50:11.162Z,96658.75
2023-03-16T07:52:37.682Z,96656.31
2023-03-16T07:55:04.140Z,96652.53
2023-03-16T07:57:30.608Z,96649.22
2023-03-16T07:59:57.064Z,96666.69
2023-03-16T08:02:23.567Z,96661.94
2023-03-16T08:04:50.074Z,96659.63
2023-03-16T08:07:16.515Z,96659.16
2023-03-16T08:09:42.969Z,96659.50
2023-03-16T08:12:09.409Z,96651.00
2023-03-16T08:14:35.839Z,96658.81
2023-03-16T08:17:02.345Z,96650.16
2023-03-16T08:19:28.815Z,96651.72
2023-03-16T08:22:01.370Z,96658.44
2023-03-16T08:24:28.250Z,96665.00
2023-03-16T08:26:54.701Z,96667.78
2023-03-16T08:29:21.144Z,96672.66
2023-03-16T08:31:47.576Z,96673.41
2023-03-16T08:34:14.015Z,96664.34
2023-03-16T08:36:40.501Z,96662.69
2023-03-16T08:39:07.862Z,96647.78
2023-03-16T08:41:34.340Z,96641.69
2023-03-16T08:44:00.794Z,96640.69
2023-03-16T08:46:27.230Z,96655.06
2023-03-16T08:48:53.687Z,96644.13
2023-03-16T08:51:20.142Z,96646.00
2023-03-16T08:53:46.587Z,96642.56
2023-03-16T08:56:13.038Z,96644.00
2023-03-16T08:58:39.498Z,96649.53
2023-03-16T09:01:05.942Z,96642.81
2023-03-16T09:03:32.363Z,96645.44
2023-03-16T09:05:58.842Z,96640.25
2023-03-16T09:08:25.281Z,96637.16
2023-03-16T09:10:51.730Z,96637.38
2023-03-16T09:13:18.193Z,96631.31
2023-03-16T09:15:44.658Z,96638.16
2023-03-16T09:18:11.103Z,96634.38
2023-03-16T09:20:37.861Z,96642.34
2023-03-16T09:23:04.428Z,96638.28
2023-03-16T09:25:31.269Z,96637.25
2023-03-16T09:27:57.965Z,96630.41
2023-03-16T09:30:24.569Z,96626.41
2023-03-16T09:32:51.186Z,96619.34
2023-03-16T09:35:17.730Z,96611.34
2023-03-16T09:38:01.195Z,96608.94
2023-03-16T09:40:30.618Z,96607.28
2023-03-16T09:42:57.101Z,96612.59
2023-03-16T09:45:23.535Z,96619.00
2023-03-16T09:47:49.978Z,96606.63
2023-03-16T09:50:16.507Z,96600.19
2023-03-16T09:52:42.976Z,96590.47
2023-03-16T09:55:09.436Z,96595.34
2023-03-16T09:57:35.931Z,96594.22
2023-03-16T10:00:02.411Z,96592.22
2023-03-16T10:02:28.865Z,96587.28
2023-03-16T10:04:55.314Z,96591.47
2023-03-16T10:07:21.798Z,96588.47
2023-03-16T10:09:48.228Z,96588.59
2023-03-16T10:12:14.687Z,96585.94
2023-03-16T10:14:41.131Z,96584.81
2023-03-16T10:17:07.588Z,96588.59
2023-03-16T10:19:34.052Z,96589.38
2023-03-16T10:22:00.493Z,96597.34
2023-03-16T10:24:26.953Z,96585.16
2023-03-16T10:26:53.390Z,96587.03
2023-03-16T10:29:19.848Z,96587.13
2023-03-16T10:31:46.370Z,96580.41
2023-03-16T10:34:12.883Z,96584.72
2023-03-16T10:36:39.400Z,96587.03
2023-03-16T10:39:05.881Z,96594.88
2023-03-16T10:41:32.392Z,96582.69
2023-03-16T10:43:58.841Z,96583.69
2023-03-16T10:46:25.366Z,96581.50
2023-03-16T10:48:51.865Z,96578.38
2023-03-16T10:51:18.345Z,96585.25
2023-03-16T10:53:44.850Z,96583.69
2023-03-16T10:56:11.294Z,96583.06
2023-03-16T10:58:37.770Z,96584.81
2023-03-16T11:01:04.265Z,96578.38
2023-03-16T11:03:30.739Z,96581.81
2023-03-16T11:05:57.204Z,96589.69
2023-03-16T11:08:23.698Z,96580.28
2023-03-16T11:10:55.924Z,96586.47
2023-03-16T11:13:22.586Z,96576.09
2023-03-16T11:15:49.092Z,96573.84
2023-03-16T11:18:15.548Z,96569.09
2023-03-16T11:20:42.046Z,96564.56
2023-03-16T11:23:08.488Z,96570.00
2023-03-16T11:25:34.952Z,96574.22
2023-03-16T11:28:01.466Z,96570.22
2023-03-16T11:30:27.929Z,96573.75
2023-03-16T11:32:54.573Z,96567.97
2023-03-16T11:35:21.091Z,96569.53
2023-03-16T11:37:47.559Z,96566.22
2023-03-16T11:40:14.017Z,96561.56
2023-03-16T11:42:40.483Z,96560.03
2023-03-16T11:45:06.930Z,96557.13
2023-03-16T11:47:33.399Z,96553.94
2023-03-16T11:49:59.891Z,96555.94
2023-03-16T11:52:26.340Z,96557.81
2023-03-16T11:54:52.793Z,96562.03
2023-03-16T11:57:19.236Z,96563.22
2023-03-16T11:59:52.033Z,96559.63
2023-03-16T12:02:25.666Z,96550.63
2023-03-16T12:04:52.227Z,96543.69
2023-03-16T12:07:18.736Z,96539.91
2023-03-16T12:09:45.188Z,96537.59
2023-03-16T12:12:11.647Z,96535.34
2023-03-16T12:14:38.105Z,96532.59
2023-03-16T12:17:04.622Z,96517.47
2023-03-16T12:19:31.136Z,96523.31
2023-03-16T12:21:57.602Z,96511.81
2023-03-16T12:24:24.072Z,96517.88
2023-03-16T12:26:50.551Z,96518.66
2023-03-16T12:29:17.055Z,96509.59
2023-03-16T12:31:43.536Z,96503.50
2023-03-16T12:34:10.027Z,96499.41
2023-03-16T12:36:36.473Z,96499.53
2023-03-16T12:39:02.919Z,96510.50
2023-03-16T12:41:29.360Z,96506.38
2023-03-16T12:43:55.882Z,96503.16
2023-03-16T12:46:22.432Z,96492.66
2023-03-16T12:48:48.996Z,96495.00
2023-03-16T12:51:15.471Z,96497.22
2023-03-16T12:53:41.908Z,96487.72
2023-03-16T12:56:08.374Z,96496.88
2023-03-16T12:58:34.837Z,96490.38
2023-03-16T13:01:01.323Z,96488.03
2023-03-16T13:03:27.788Z,96487.25
2023-03-16T13:05:54.296Z,96486.47
2023-03-16T13:08:20.742Z,96484.16
2023-03-16T13:10:47.301Z,96482.69
2023-03-16T13:13:13.764Z,96475.97
2023-03-16T13:15:40.232Z,96471.56
2023-03-16T13:18:06.689Z,96475.88
2023-03-16T13:20:33.493Z,96478.09
2023-03-16T13:23:00.293Z,96476.88
2023-03-16T13:25:26.732Z,96483.75
2023-03-16T13:27:53.227Z,96473.13
2023-03-16T13:30:19.748Z,96474.22
2023-03-16T13:32:46.272Z,96475.53
2023-03-16T13:35:12.756Z,96463.81
2023-03-16T13:37:39.210Z,96463.16
2023-03-16T13:40:05.686Z,96459.84
2023-03-16T13:42:32.151Z,96459.94
2023-03-16T13:44:58.612Z,96457.28
2023-03-16T13:47:25.093Z,96458.75
2023-03-16T13:49:51.558Z,96455.72
2023-03-16T13:52:18.047Z,96452.97
2023-03-16T13:54:44.532Z,96455.31
2023-03-16T13:57:10.986Z,96451.88
2023-03-16T13:59:37.447Z,96453.75
2023-03-16T14:02:03.926Z,96444.56
2023-03-16T14:04:30.376Z,96447.97
2023-03-16T14:06:56.833Z,96440.16
2023-03-16T14:09:23.273Z,96441.25
2023-03-16T14:11:49.761Z,96442.03
2023-03-16T14:14:16.397Z,96439.03
2023-03-16T14:16:42.945Z,96434.72
2023-03-16T14:19:09.388Z,96428.22
2023-03-16T14:21:35.850Z,96430.97
2023-03-16T14:24:02.294Z,96432.53
2023-03-16T14:26:28.756Z,96438.50
2023-03-16T14:28:55.207Z,96432.84
2023-03-16T14:31:21.704Z,96433.97
2023-03-16T14:33:48.229Z,96435.09
2023-03-16T14:36:14.754Z,96437.38
2023-03-16T14:38:41.278Z,96432.53
2023-03-16T14:41:07.727Z,96428.00
2023-03-16T14:43:34.172Z,96421.34
2023-03-16T14:46:00.759Z,96418.03
2023-03-16T14:48:27.281Z,96414.28
2023-03-16T14:50:53.731Z,96403.00
2023-03-16T14:53:20.191Z,96404.75
2023-03-16T14:55:46.650Z,96406.75
2023-03-16T14:58:13.090Z,96406.41
2023-03-16T15:00:52.043Z,96392.66
2023-03-16T15:03:19.522Z,96408.72
2023-03-16T15:05:45.992Z,96415.63
2023-03-16T15:08:12.446Z,96408.06
2023-03-16T15:10:38.932Z,96403.16
2023-03-16T15:13:05.395Z,96399.19
2023-03-16T15:15:31.869Z,96399.13
2023-03-16T15:17:58.330Z,96396.03
2023-03-16T15:20:24.786Z,96391.47
2023-03-16T15:22:51.272Z,96394.00
2023-03-16T15:25:17.739Z,96389.72
2023-03-16T15:27:44.183Z,96386.94
2023-03-16T15:30:10.647Z,96381.63
2023-03-16T15:32:37.139Z,96380.63
2023-03-16T15:35:03.631Z,96377.88
2023-03-16T15:37:30.101Z,96389.72
2023-03-16T15:39:56.553Z,96382.28
2023-03-16T15:42:23.038Z,96387.94
2023-03-16T15:44:49.509Z,96384.28
2023-03-16T15:47:15.980Z,96386.16
2023-03-16T15:49:47.823Z,96380.53
2023-03-16T15:52:14.636Z,96370.44
2023-03-16T15:54:41.080Z,96373.44
2023-03-16T15:57:07.551Z,96380.88
2023-03-16T15:59:34.019Z,96374.22
2023-03-16T16:02:00.518Z,96364.69
2023-03-16T16:04:26.993Z,96361.28
2023-03-16T16:06:53.515Z,96357.50
2023-03-16T16:09:19.959Z,96354.19
2023-03-16T16:11:46.428Z,96356.31
2023-03-16T16:14:12.869Z,96351.00
2023-03-16T16:16:39.355Z,96350.22
2023-03-16T16:19:05.842Z,96349.47
2023-03-16T16:21:32.322Z,96344.91
2023-03-16T16:23:58.779Z,96349.47
2023-03-16T16:26:27.850Z,96343.03
2023-03-16T16:28:58.148Z,96348.22
2023-03-16T16:31:24.666Z,96354.00
2023-03-16T16:33:51.138Z,96360.53
2023-03-16T16:36:17.641Z,96355.53
2023-03-16T16:38:44.118Z,96348.63
2023-03-16T16:41:10.610Z,96349.97
2023-03-16T16:43:37.083Z,96348.56
2023-03-16T16:46:03.578Z,96342.72
2023-03-16T16:48:30.132Z,96349.47
2023-03-16T16:50:56.606Z,96351.88
2023-03-16T16:53:23.089Z,96344.28
2023-03-16T16:55:49.553Z,96346.50
2023-03-16T16:58:24.199Z,96350.97
2023-03-16T17:00:51.311Z,96344.91
2023-03-16T17:03:17.793Z,96349.91
2023-03-16T17:05:44.263Z,96348.09
2023-03-16T17:08:10.709Z,96345.88
2023-03-16T17:10:37.156Z,96349.22
2023-03-16T17:13:03.627Z,96351.81
2023-03-16T17:15:30.425Z,96349.34
2023-03-16T17:17:57.061Z,96349.28
2023-03-16T17:20:23.526Z,96351.59
2023-03-16T17:22:50.002Z,96349.97
2023-03-16T17:25:16.481Z,96341.84
2023-03-16T17:27:42.963Z,96341.28
2023-03-16T17:30:09.412Z,96345.47
2023-03-16T17:32:35.906Z,96353.31
2023-03-16T17:35:02.387Z,96349.66
2023-03-16T17:37:28.887Z,96353.25
2023-03-16T17:39:57.385Z,96352.41
2023-03-16T17:42:24.101Z,96353.38
2023-03-16T17:44:50.545Z,96351.56
2023-03-16T17:47:17.044Z,96349.81
2023-03-16T17:49:43.534Z,96349.81
2023-03-16T17:52:09.974Z,96355.84
2023-03-16T17:54:36.447Z,96352.78
2023-03-16T17:57:02.919Z,96355.25
2023-03-16T17:59:29.369Z,96346.41
2023-03-16T18:01:55.909Z,96345.66
2023-03-16T18:04:22.469Z,96348.97
2023-03-16T18:06:48.944Z,96361.56
2023-03-16T18:09:15.417Z,96362.25
2023-03-16T18:11:41.878Z,96350.50
2023-03-16T18:14:08.362Z,96358.03
2023-03-16T18:16:34.855Z,96355.16
2023-03-16T18:19:01.325Z,96356.16
2023-03-16T18:21:27.791Z,96357.25
2023-03-16T18:23:54.259Z,96354.59
2023-03-16T18:26:20.740Z,96353.41
2023-03-16T18:28:47.193Z,96353.63
2023-03-16T18:31:13.672Z,96353.16
2023-03-16T18:33:40.159Z,96358.81
2023-03-16T18:36:06.655Z,96351.28
2023-03-16T18:38:33.186Z,96355.38
2023-03-16T18:40:59.668Z,96366.44
2023-03-16T18:43:27.321Z,96367.78
2023-03-16T18:45:54.920Z,96368.13
2023-03-16T18:48:21.488Z,96366.34
2023-03-16T18:50:47.950Z,96373.56
2023-03-16T18:53:14.409Z,96361.72
2023-03-16T18:55:40.874Z,96365.47
2023-03-16T18:58:07.335Z,96373.09
2023-03-16T19:00:33.884Z,96368.91
2023-03-16T19:03:00.380Z,96371.91
2023-03-16T19:05:27.076Z,96380.41
2023-03-16T19:07:53.844Z,96378.94
2023-03-16T19:10:20.312Z,96372.44
2023-03-16T19:12:46.754Z,96367.78
2023-03-16T19:15:13.234Z,96371.56
2023-03-16T19:17:39.733Z,96378.84
2023-03-16T19:20:06.249Z,96377.63
2023-03-16T19:22:32.730Z,96376.63
2023-03-16T19:24:59.184Z,96376.88
2023-03-16T19:27:25.719Z,96371.13
2023-03-16T19:29:52.467Z,96368.28
2023-03-16T19:32:18.951Z,96376.41
2023-03-16T19:34:45.396Z,96370.06
2023-03-16T19:37:11.847Z,96368.97
2023-03-16T19:39:38.311Z,96368.84
2023-03-16T19:42:04.779Z,96371.50
2023-03-16T19:44:31.244Z,96378.38
2023-03-16T19:46:57.690Z,96377.28
2023-03-16T19:49:24.154Z,96372.56
2023-03-16T19:51:50.644Z,96367.81
2023-03-16T19:54:17.101Z,96367.16
2023-03-16T19:56:43.601Z,96367.69
2023-03-16T19:59:10.070Z,96364.84
2023-03-16T20:01:36.591Z,96367.34
2023-03-16T20:04:03.242Z,96361.66
2023-03-16T20:06:29.812Z,96371.78
2023-03-16T20:08:56.267Z,96358.47
2023-03-16T20:11:22.734Z,96347.34
2023-03-16T20:13:49.187Z,96355.91
2023-03-16T20:16:15.662Z,96356.78
2023-03-16T20:18:42.126Z,96355.81
2023-03-16T20:21:08.635Z,96360.56
2023-03-16T20:23:35.090Z,96357.16
2023-03-16T20:26:03.023Z,96359.38
2023-03-16T20:28:29.683Z,96362.63
2023-03-16T20:30:56.175Z,96366.88
2023-03-16T20:33:23.810Z,96369.53
2023-03-16T20:35:50.590Z,96373.06
2023-03-16T20:38:17.053Z,96373.25
2023-03-16T20:40:43.544Z,96380.34
2023-03-16T20:43:12.510Z,96375.97
2023-03-16T20:45:40.969Z,96375.03
2023-03-16T20:48:07.480Z,96368.84
2023-03-16T20:50:33.968Z,96368.72
2023-03-16T20:53:00.452Z,96377.59
2023-03-16T20:55:27.025Z,96379.13
2023-03-16T20:57:53.550Z,96373.59
2023-03-16T21:00:20.042Z,96374.94
2023-03-16T21:02:46.528Z,96370.84
2023-03-16T21:05:13.049Z,96368.78
2023-03-16T21:07:39.556Z,96367.50
2023-03-16T21:10:06.003Z,96363.22
2023-03-16T21:12:32.466Z,96367.34
2023-03-16T21:14:58.966Z,96363.22
2023-03-16T21:17:26.787Z,96359.59
2023-03-16T21:19:53.372Z,96366.00
2023-03-16T21:22:19.859Z,96375.72
2023-03-16T21:24:46.313Z,96372.38
2023-03-16T21:27:12.754Z,96372.09
2023-03-16T21:29:39.231Z,96370.66
2023-03-16T21:32:05.710Z,96361.81
2023-03-16T21:34:32.216Z,96349.78
2023-03-16T21:36:58.683Z,96355.75
2023-03-16T21:39:25.432Z,96345.47
2023-03-16T21:41:52.063Z,96344.03
2023-03-16T21:44:18.605Z,96347.19
2023-03-16T21:46:45.117Z,96347.03
2023-03-16T21:49:11.611Z,96345.19
2023-03-16T21:51:38.066Z,96340.84
2023-03-16T21:54:04.551Z,96343.75
2023-03-16T21:56:31.009Z,96338.44
2023-03-16T21:58:57.488Z,96338.69
2023-03-16T22:01:23.994Z,96333.97
2023-03-16T22:03:51.552Z,96340.28
2023-03-16T22:06:18.082Z,96333.72
2023-03-16T22:08:44.530Z,96329.84
2023-03-16T22:11:10.995Z,96323.75
2023-03-16T22:13:37.452Z,96323.97
2023-03-16T22:16:04.027Z,96326.63
2023-03-16T22:18:30.504Z,96326.88
2023-03-16T22:20:56.968Z,96325.25
2023-03-16T22:23:23.423Z,96336.03
2023-03-16T22:25:49.868Z,96331.94
2023-03-16T22:28:16.329Z,96330.88
2023-03-16T22:30:42.809Z,96328.22
2023-03-16T22:33:09.255Z,96327.00
2023-03-16T22:35:35.761Z,96334.56
2023-03-16T22:38:02.250Z,96335.16
2023-03-16T22:40:28.738Z,96335.63
2023-03-16T22:42:55.208Z,96329.81
2023-03-16T22:45:21.683Z,96321.78
2023-03-16T22:47:48.138Z,96321.88
2023-03-16T22:50:14.610Z,96326.50
2023-03-16T22:52:41.080Z,96322.78
2023-03-16T22:55:07.520Z,96325.53
2023-03-16T22:57:34.024Z,96321.44
2023-03-16T23:00:00.506Z,96322.09
2023-03-16T23:02:26.956Z,96320.66
2023-03-16T23:04:53.462Z,96313.88
2023-03-16T23:07:19.954Z,96308.22
2023-03-16T23:09:46.424Z,96310.56
2023-03-16T23:12:12.882Z,96309.41
2023-03-16T23:14:39.325Z,96316.63
2023-03-16T23:17:05.801Z,96318.78
2023-03-16T23:19:32.290Z,96314.66
2023-03-16T23:21:58.759Z,96315.53
2023-03-16T23:24:25.223Z,96329.66
2023-03-16T23:26:51.756Z,96318.06
2023-03-16T23:29:18.204Z,96321.91
2023-03-16T23:31:44.655Z,96319.13
2023-03-16T23:34:11.147Z,96311.72
2023-03-16T23:36:37.617Z,96314.72
2023-03-16T23:39:04.088Z,96318.00
2023-03-16T23:41:30.554Z,96308.22
2023-03-16T23:43:57.002Z,96305.91
2023-03-16T23:46:23.537Z,96313.78
2023-03-16T23:48:50.041Z,96311.75
2023-03-16T23:51:17.158Z,96309.25
2023-03-16T23:53:44.716Z,96309.06
2023-03-16T23:56:11.173Z,96303.75
2023-03-16T23:58:37.627Z,96303.09
